createdAt,value
2023-05-14T00:01:31.654Z,9.84
2023-05-14T00:04:34.624Z,9.76
2023-05-14T00:07:37.115Z,9.71
2023-05-14T00:10:39.801Z,9.66
2023-05-14T00:13:42.224Z,9.60
2023-05-14T00:16:45.026Z,9.55
2023-05-14T00:19:47.543Z,9.50
2023-05-14T00:22:50.345Z,9.48
2023-05-14T00:25:52.776Z,9.39
2023-05-14T00:28:55.539Z,9.34
2023-05-14T00:31:58.052Z,9.25
2023-05-14T00:35:01.139Z,9.20
2023-05-14T00:38:03.961Z,9.18
2023-05-14T00:41:06.691Z,9.16
2023-05-14T00:44:09.128Z,9.13
2023-05-14T00:47:12.407Z,8.99
2023-05-14T00:50:16.091Z,9.08
2023-05-14T00:53:21.782Z,9.06
2023-05-14T00:56:25.169Z,8.98
2023-05-14T00:59:27.926Z,8.92
2023-05-14T01:02:30.470Z,8.88
2023-05-14T01:05:58.875Z,8.96
2023-05-14T01:09:04.539Z,9.03
2023-05-14T01:12:27.590Z,9.09
2023-05-14T01:15:32.378Z,9.15
2023-05-14T01:18:35.418Z,9.15
2023-05-14T01:21:40.930Z,9.22
2023-05-14T01:24:43.847Z,9.29
2023-05-14T01:27:53.561Z,9.38
2023-05-14T01:31:06.040Z,9.47
2023-05-14T01:34:09.375Z,9.57
2023-05-14T01:37:12.961Z,9.63
2023-05-14T01:40:15.713Z,9.66
2023-05-14T01:43:19.188Z,9.69
2023-05-14T01:46:24.163Z,9.73
2023-05-14T01:49:26.976Z,9.76
2023-05-14T01:52:29.449Z,9.78
2023-05-14T01:55:32.350Z,9.80
2023-05-14T01:58:34.883Z,9.83
2023-05-14T02:01:37.735Z,9.85
2023-05-14T02:04:40.903Z,9.87
2023-05-14T02:07:43.340Z,9.90
2023-05-14T02:10:46.096Z,9.92
2023-05-14T02:13:48.834Z,9.98
2023-05-14T02:16:51.412Z,10.00
2023-05-14T02:19:54.095Z,10.01
2023-05-14T02:22:56.616Z,10.00
2023-05-14T02:25:59.457Z,10.00
2023-05-14T02:29:01.964Z,10.00
2023-05-14T02:32:05.149Z,9.99
2023-05-14T02:35:08.017Z,9.97
2023-05-14T02:38:10.782Z,9.97
2023-05-14T02:41:13.213Z,9.95
2023-05-14T02:44:15.973Z,9.95
2023-05-14T02:47:18.844Z,9.93
2023-05-14T02:50:21.898Z,9.90
2023-05-14T02:53:24.477Z,9.90
2023-05-14T02:56:27.373Z,9.88
2023-05-14T02:59:30.193Z,9.87
2023-05-14T03:02:33.586Z,9.86
2023-05-14T03:05:36.573Z,9.86
2023-05-14T03:08:39.361Z,9.87
2023-05-14T03:11:41.849Z,9.88
2023-05-14T03:14:44.600Z,9.88
2023-05-14T03:17:47.110Z,9.90
2023-05-14T03:20:49.845Z,9.90
2023-05-14T03:23:52.885Z,9.93
2023-05-14T03:26:55.690Z,9.72
2023-05-14T03:29:58.122Z,9.86
2023-05-14T03:33:00.856Z,9.85
2023-05-14T03:36:03.547Z,9.84
2023-05-14T03:39:07.112Z,9.84
2023-05-14T03:42:11.192Z,9.85
2023-05-14T03:45:13.960Z,9.89
2023-05-14T03:48:17.604Z,9.87
2023-05-14T03:51:20.351Z,9.92
2023-05-14T03:54:22.867Z,9.88
2023-05-14T03:57:25.826Z,9.89
2023-05-14T04:00:29.083Z,9.85
2023-05-14T04:03:32.205Z,9.83
2023-05-14T04:06:34.895Z,9.76
2023-05-14T04:09:37.678Z,9.63
2023-05-14T04:12:40.178Z,9.55
2023-05-14T04:15:43.537Z,9.51
2023-05-14T04:18:46.111Z,9.48
2023-05-14T04:21:48.919Z,9.44
2023-05-14T04:24:52.493Z,9.44
2023-05-14T04:27:55.300Z,9.42
2023-05-14T04:30:58.078Z,9.41
2023-05-14T04:34:00.892Z,9.40
2023-05-14T04:37:04.228Z,9.44
2023-05-14T04:40:08.185Z,9.42
2023-05-14T04:43:10.850Z,9.41
2023-05-14T04:46:13.931Z,9.39
2023-05-14T04:49:16.442Z,9.37
2023-05-14T04:52:19.150Z,9.37
2023-05-14T04:55:22.231Z,9.38
2023-05-14T04:58:25.100Z,9.38
2023-05-14T05:01:27.664Z,9.38
2023-05-14T05:04:30.631Z,9.38
2023-05-14T05:07:33.018Z,9.36
2023-05-14T05:10:35.995Z,9.30
2023-05-14T05:13:38.440Z,9.24
2023-05-14T05:16:41.201Z,9.20
2023-05-14T05:19:44.629Z,9.18
2023-05-14T05:22:47.574Z,9.14
2023-05-14T05:25:50.511Z,9.14
2023-05-14T05:28:53.347Z,9.13
2023-05-14T05:31:56.170Z,9.12
2023-05-14T05:34:58.998Z,9.17
2023-05-14T05:38:01.963Z,9.17
2023-05-14T05:41:04.840Z,9.15
2023-05-14T05:44:07.361Z,9.14
2023-05-14T05:47:10.128Z,9.15
2023-05-14T05:50:12.840Z,9.12
2023-05-14T05:53:18.481Z,9.13
2023-05-14T05:56:22.128Z,9.13
2023-05-14T05:59:25.114Z,9.12
2023-05-14T06:02:27.707Z,9.11
2023-05-14T06:05:30.556Z,9.12
2023-05-14T06:08:33.014Z,9.13
2023-05-14T06:11:36.218Z,9.14
2023-05-14T06:14:38.668Z,9.16
2023-05-14T06:17:41.602Z,9.21
2023-05-14T06:20:44.946Z,9.20
2023-05-14T06:23:47.672Z,9.27
2023-05-14T06:26:50.082Z,9.35
2023-05-14T06:29:52.884Z,9.38
2023-05-14T06:32:55.475Z,9.42
2023-05-14T06:36:04.667Z,9.47
2023-05-14T06:39:07.183Z,9.51
2023-05-14T06:42:09.930Z,9.54
2023-05-14T06:45:12.371Z,9.59
2023-05-14T06:48:15.445Z,9.58
2023-05-14T06:51:17.901Z,9.55
2023-05-14T06:54:20.725Z,9.55
2023-05-14T06:57:23.183Z,9.55
2023-05-14T07:00:26.271Z,9.51
2023-05-14T07:03:29.471Z,9.51
2023-05-14T07:06:32.651Z,9.46
2023-05-14T07:09:35.087Z,9.44
2023-05-14T07:12:37.831Z,9.42
2023-05-14T07:15:40.360Z,9.40
2023-05-14T07:18:43.872Z,9.40
2023-05-14T07:21:46.341Z,9.44
2023-05-14T07:24:49.451Z,9.46
2023-05-14T07:27:51.963Z,9.44
2023-05-14T07:30:55.302Z,9.45
2023-05-14T07:33:57.706Z,9.48
2023-05-14T07:37:01.351Z,9.46
2023-05-14T07:40:04.032Z,9.49
2023-05-14T07:43:06.888Z,9.56
2023-05-14T07:46:09.455Z,9.57
2023-05-14T07:49:12.145Z,9.60
2023-05-14T07:52:14.840Z,9.60
2023-05-14T07:55:17.639Z,9.63
2023-05-14T07:58:20.120Z,9.64
2023-05-14T08:01:22.987Z,9.58
2023-05-14T08:04:26.520Z,9.59
2023-05-14T08:07:30.126Z,9.64
2023-05-14T08:10:32.837Z,9.71
2023-05-14T08:13:35.314Z,9.79
2023-05-14T08:16:38.869Z,9.87
2023-05-14T08:19:41.438Z,10.03
2023-05-14T08:22:44.181Z,10.11
2023-05-14T08:25:46.638Z,10.14
2023-05-14T08:28:49.350Z,10.14
2023-05-14T08:31:51.836Z,10.16
2023-05-14T08:34:54.557Z,10.10
2023-05-14T08:37:57.190Z,10.05
2023-05-14T08:41:00.520Z,9.99
2023-05-14T08:44:12.987Z,9.96
2023-05-14T08:47:16.461Z,9.99
2023-05-14T08:50:22.719Z,10.02
2023-05-14T08:53:26.433Z,10.06
2023-05-14T08:56:30.584Z,10.07
2023-05-14T08:59:33.452Z,10.15
2023-05-14T09:02:36.878Z,10.15
2023-05-14T09:05:39.744Z,10.18
2023-05-14T09:08:42.639Z,10.07
2023-05-14T09:11:50.188Z,10.11
2023-05-14T09:14:52.724Z,10.41
2023-05-14T09:17:55.727Z,10.38
2023-05-14T09:20:58.264Z,10.39
2023-05-14T09:24:01.306Z,10.39
2023-05-14T09:27:04.311Z,10.43
2023-05-14T09:30:12.123Z,10.44
2023-05-14T09:33:26.292Z,10.38
2023-05-14T09:36:29.081Z,10.30
2023-05-14T09:39:32.753Z,10.32
2023-05-14T09:42:35.658Z,10.32
2023-05-14T09:45:38.098Z,10.30
2023-05-14T09:48:40.856Z,10.31
2023-05-14T09:51:43.537Z,10.38
2023-05-14T09:54:47.041Z,10.37
2023-05-14T09:57:49.928Z,10.42
2023-05-14T10:00:52.802Z,10.48
2023-05-14T10:03:56.217Z,10.48
2023-05-14T10:06:59.604Z,10.50
2023-05-14T10:10:03.884Z,10.54
2023-05-14T10:13:14.865Z,10.52
2023-05-14T10:16:28.716Z,10.60
2023-05-14T10:19:34.876Z,10.66
2023-05-14T10:22:37.642Z,10.67
2023-05-14T10:25:41.208Z,10.70
2023-05-14T10:28:44.116Z,10.79
2023-05-14T10:31:47.344Z,10.82
2023-05-14T10:34:50.686Z,10.91
2023-05-14T10:37:53.592Z,11.00
2023-05-14T10:40:59.036Z,10.97
2023-05-14T10:44:08.414Z,11.08
2023-05-14T10:47:11.519Z,11.10
2023-05-14T10:50:17.650Z,10.99
2023-05-14T10:53:22.368Z,11.02
2023-05-14T10:56:24.831Z,11.06
2023-05-14T10:59:28.341Z,11.06
2023-05-14T11:02:37.053Z,11.12
2023-05-14T11:05:40.967Z,11.04
2023-05-14T11:08:44.041Z,11.28
2023-05-14T11:11:47.751Z,11.24
2023-05-14T11:14:50.883Z,11.26
2023-05-14T11:17:54.290Z,11.23
2023-05-14T11:21:05.709Z,11.11
2023-05-14T11:24:08.565Z,11.12
2023-05-14T11:27:11.279Z,11.16
2023-05-14T11:30:18.885Z,11.18
2023-05-14T11:33:21.352Z,11.14
2023-05-14T11:36:24.091Z,11.19
2023-05-14T11:39:26.513Z,11.24
2023-05-14T11:42:29.278Z,11.31
2023-05-14T11:45:33.040Z,11.42
2023-05-14T11:48:35.778Z,11.46
2023-05-14T11:51:38.224Z,11.48
2023-05-14T11:54:42.616Z,11.47
2023-05-14T11:57:45.194Z,11.52
2023-05-14T12:00:51.755Z,11.44
2023-05-14T12:03:54.610Z,11.41
2023-05-14T12:06:59.074Z,11.41
2023-05-14T12:10:03.694Z,11.39
2023-05-14T12:13:07.170Z,11.42
2023-05-14T12:16:10.001Z,11.43
2023-05-14T12:19:14.888Z,11.42
2023-05-14T12:22:19.530Z,11.43
2023-05-14T12:25:21.983Z,11.38
2023-05-14T12:28:24.736Z,11.38
2023-05-14T12:31:34.765Z,11.40
2023-05-14T12:34:38.044Z,11.43
2023-05-14T12:37:40.710Z,11.45
2023-05-14T12:40:43.455Z,11.56
2023-05-14T12:43:48.020Z,11.59
2023-05-14T12:46:50.959Z,11.70
2023-05-14T12:49:53.439Z,11.69
2023-05-14T12:52:56.204Z,11.66
2023-05-14T12:55:58.711Z,11.74
2023-05-14T12:59:01.522Z,11.80
2023-05-14T13:02:04.013Z,11.73
2023-05-14T13:05:07.174Z,11.64
2023-05-14T13:08:10.196Z,11.58
2023-05-14T13:11:13.038Z,11.58
2023-05-14T13:14:15.679Z,11.57
2023-05-14T13:17:18.504Z,11.51
2023-05-14T13:20:21.156Z,11.51
2023-05-14T13:23:23.877Z,11.49
2023-05-14T13:26:28.205Z,11.46
2023-05-14T13:29:31.648Z,11.47
2023-05-14T13:32:34.223Z,11.43
2023-05-14T13:35:36.928Z,11.42
2023-05-14T13:38:39.540Z,11.38
2023-05-14T13:41:42.304Z,11.39
2023-05-14T13:44:44.759Z,11.41
2023-05-14T13:47:48.768Z,11.39
2023-05-14T13:50:52.072Z,11.39
2023-05-14T13:57:02.160Z,11.40
2023-05-14T14:00:06.714Z,11.41
2023-05-14T14:03:09.521Z,11.40
2023-05-14T14:06:12.075Z,11.39
2023-05-14T14:09:14.891Z,11.36
2023-05-14T14:12:17.530Z,11.32
2023-05-14T14:15:20.358Z,11.30
2023-05-14T14:18:22.794Z,11.29
2023-05-14T14:21:25.518Z,11.30
2023-05-14T14:24:28.056Z,11.33
2023-05-14T14:27:36.069Z,11.36
2023-05-14T14:30:38.534Z,11.29
2023-05-14T14:33:41.257Z,11.40
2023-05-14T14:36:43.672Z,11.39
2023-05-14T14:39:46.499Z,11.31
2023-05-14T14:42:49.134Z,11.28
2023-05-14T14:45:51.902Z,11.27
2023-05-14T14:48:54.472Z,11.25
2023-05-14T14:51:57.387Z,11.20
2023-05-14T14:54:59.867Z,11.19
2023-05-14T14:58:02.607Z,11.23
2023-05-14T15:01:05.471Z,11.20
2023-05-14T15:04:08.249Z,11.17
2023-05-14T15:07:11.214Z,11.16
2023-05-14T15:10:14.121Z,11.17
2023-05-14T15:13:16.698Z,11.14
2023-05-14T15:16:19.481Z,11.13
2023-05-14T15:19:22.031Z,11.14
2023-05-14T15:22:24.777Z,11.13
2023-05-14T15:25:27.303Z,11.15
2023-05-14T15:28:30.020Z,11.15
2023-05-14T15:31:32.539Z,11.19
2023-05-14T15:34:35.629Z,11.19
2023-05-14T15:37:44.743Z,11.26
2023-05-14T15:40:48.670Z,11.25
2023-05-14T15:43:51.428Z,11.26
2023-05-14T15:46:54.211Z,11.30
2023-05-14T15:49:56.752Z,11.28
2023-05-14T15:53:00.215Z,11.28
2023-05-14T15:56:02.970Z,11.31
2023-05-14T15:59:05.846Z,11.32
2023-05-14T16:02:09.229Z,11.35
2023-05-14T16:05:12.062Z,11.38
2023-05-14T16:08:14.488Z,11.34
2023-05-14T16:11:17.310Z,11.35
2023-05-14T16:14:19.807Z,11.34
2023-05-14T16:17:22.554Z,11.35
2023-05-14T16:20:25.189Z,11.34
2023-05-14T16:23:28.050Z,11.35
2023-05-14T16:26:30.747Z,11.25
2023-05-14T16:29:33.444Z,11.34
2023-05-14T16:32:36.012Z,11.36
2023-05-14T16:35:39.461Z,11.35
2023-05-14T16:38:56.973Z,11.35
2023-05-14T16:42:04.987Z,11.36
2023-05-14T16:45:08.151Z,11.38
2023-05-14T16:48:10.896Z,11.39
2023-05-14T16:51:13.583Z,11.40
2023-05-14T16:54:16.300Z,11.40
2023-05-14T16:57:18.755Z,11.40
2023-05-14T17:00:21.519Z,11.41
2023-05-14T17:03:23.981Z,11.41
2023-05-14T17:06:26.704Z,11.41
2023-05-14T17:09:29.156Z,11.41
2023-05-14T17:12:32.137Z,11.42
2023-05-14T17:15:35.374Z,11.43
2023-05-14T17:18:38.187Z,11.44
2023-05-14T17:21:40.668Z,11.44
2023-05-14T17:24:43.454Z,11.46
2023-05-14T17:27:46.071Z,11.47
2023-05-14T17:30:48.837Z,11.47
2023-05-14T17:33:51.334Z,11.48
2023-05-14T17:36:54.141Z,11.49
2023-05-14T17:39:56.885Z,11.50
2023-05-14T17:42:59.720Z,11.50
2023-05-14T17:46:02.232Z,11.51
2023-05-14T17:49:05.023Z,11.50
2023-05-14T17:52:07.506Z,11.49
2023-05-14T17:55:11.077Z,11.48
2023-05-14T17:58:15.476Z,11.47
2023-05-14T18:01:19.024Z,11.45
2023-05-14T18:04:22.100Z,11.46
2023-05-14T18:07:24.548Z,11.46
2023-05-14T18:10:29.531Z,11.46
2023-05-14T18:13:32.087Z,11.47
2023-05-14T18:16:34.890Z,11.48
2023-05-14T18:19:37.576Z,11.47
2023-05-14T18:22:40.805Z,11.46
2023-05-14T18:25:43.603Z,11.46
2023-05-14T18:28:46.362Z,11.42
2023-05-14T18:31:49.070Z,11.41
2023-05-14T18:34:51.854Z,11.39
2023-05-14T18:37:54.900Z,11.38
2023-05-14T18:40:57.852Z,11.36
2023-05-14T18:44:01.951Z,11.38
2023-05-14T18:47:05.048Z,11.38
2023-05-14T18:50:08.145Z,11.37
2023-05-14T18:53:11.244Z,11.37
2023-05-14T18:56:13.761Z,11.36
2023-05-14T18:59:16.514Z,11.36
2023-05-14T19:02:19.335Z,11.35
2023-05-14T19:05:22.491Z,11.34
2023-05-14T19:08:25.171Z,11.35
2023-05-14T19:11:28.160Z,11.35
2023-05-14T19:14:31.330Z,11.37
2023-05-14T19:17:34.196Z,11.38
2023-05-14T19:20:36.702Z,11.38
2023-05-14T19:23:39.691Z,11.41
2023-05-14T19:26:42.420Z,11.40
2023-05-14T19:29:45.176Z,11.40
2023-05-14T19:32:47.669Z,11.38
2023-05-14T19:35:51.023Z,11.37
2023-05-14T19:38:53.830Z,11.36
2023-05-14T19:41:56.571Z,11.36
2023-05-14T19:44:59.102Z,11.35
2023-05-14T19:48:02.063Z,11.34
2023-05-14T19:51:04.586Z,11.35
2023-05-14T19:54:07.557Z,11.35
2023-05-14T19:57:10.008Z,11.37
2023-05-14T20:00:13.212Z,11.37
2023-05-14T20:03:15.856Z,11.35
2023-05-14T20:06:18.911Z,11.38
2023-05-14T20:09:21.336Z,11.39
2023-05-14T20:12:24.077Z,11.37
2023-05-14T20:15:26.701Z,11.36
2023-05-14T20:18:29.612Z,11.38
2023-05-14T20:21:32.143Z,11.39
2023-05-14T20:24:34.903Z,11.36
2023-05-14T20:27:37.459Z,11.34
2023-05-14T20:30:40.784Z,11.35
2023-05-14T20:33:44.309Z,11.32
2023-05-14T20:36:47.063Z,11.32
2023-05-14T20:39:49.593Z,11.31
2023-05-14T20:42:52.425Z,11.32
2023-05-14T20:45:57.225Z,11.32
2023-05-14T20:49:01.711Z,11.32
2023-05-14T20:52:04.419Z,11.34
2023-05-14T20:55:08.067Z,11.34
2023-05-14T20:58:10.558Z,11.33
2023-05-14T21:01:13.353Z,11.31
2023-05-14T21:04:16.365Z,11.32
2023-05-14T21:07:19.234Z,11.32
2023-05-14T21:10:21.800Z,11.33
2023-05-14T21:13:24.563Z,11.34
2023-05-14T21:16:27.172Z,11.36
2023-05-14T21:19:29.934Z,11.37
2023-05-14T21:22:32.403Z,11.39
2023-05-14T21:25:35.281Z,11.39
2023-05-14T21:28:37.757Z,11.38
2023-05-14T21:31:40.899Z,11.40
2023-05-14T21:34:43.473Z,11.39
2023-05-14T21:37:46.257Z,11.35
2023-05-14T21:40:48.707Z,11.35
2023-05-14T21:43:51.441Z,11.33
2023-05-14T21:46:53.972Z,11.32
2023-05-14T21:49:56.701Z,11.33
2023-05-14T21:52:59.141Z,11.33
2023-05-14T21:56:01.866Z,11.34
2023-05-14T21:59:04.778Z,11.34
2023-05-14T22:02:08.146Z,11.34
2023-05-14T22:05:11.093Z,11.31
2023-05-14T22:08:13.579Z,11.31
2023-05-14T22:11:16.278Z,11.36
2023-05-14T22:14:18.789Z,11.38
2023-05-14T22:17:22.677Z,11.33
2023-05-14T22:20:25.262Z,11.34
2023-05-14T22:23:27.971Z,11.36
2023-05-14T22:26:30.556Z,11.36
2023-05-14T22:29:33.304Z,11.38
2023-05-14T22:32:35.780Z,11.38
2023-05-14T22:35:39.045Z,11.38
2023-05-14T22:38:43.784Z,11.40
2023-05-14T22:41:46.861Z,11.38
2023-05-14T22:44:49.324Z,11.40
2023-05-14T22:47:52.143Z,11.40
2023-05-14T22:50:54.667Z,11.41
2023-05-14T22:53:57.831Z,11.41
2023-05-14T22:57:00.301Z,11.40
2023-05-14T23:00:04.609Z,11.39
2023-05-14T23:03:07.195Z,11.40
2023-05-14T23:06:10.155Z,11.39
2023-05-14T23:09:12.586Z,11.40
2023-05-14T23:12:15.318Z,11.36
2023-05-14T23:15:17.955Z,11.41
2023-05-14T23:18:21.024Z,11.40
2023-05-14T23:21:23.786Z,11.42
2023-05-14T23:24:26.552Z,11.37
2023-05-14T23:27:29.109Z,11.40
2023-05-14T23:30:31.889Z,11.40
2023-05-14T23:33:34.359Z,11.41
2023-05-14T23:36:37.176Z,11.44
2023-05-14T23:39:39.646Z,11.45
2023-05-14T23:42:42.397Z,11.44
2023-05-14T23:45:44.938Z,11.45
2023-05-14T23:48:47.770Z,11.46
2023-05-14T23:51:50.256Z,11.46
2023-05-14T23:54:53.513Z,11.46
2023-05-14T23:57:55.921Z,11.45
